createdAt,value
2019-04-22T00:01:31.238Z,21.67
2019-04-22T00:04:04.878Z,20.37
2019-04-22T00:06:51.831Z,23.67
2019-04-22T00:09:25.200Z,20.60
2019-04-22T00:11:54.585Z,20.60
2019-04-22T00:14:20.433Z,19.97
2019-04-22T00:17:00.744Z,22.70
2019-04-22T00:19:32.095Z,21.40
2019-04-22T00:22:05.700Z,24.90
2019-04-22T00:24:27.277Z,21.60
2019-04-22T00:26:58.937Z,24.63
2019-04-22T00:32:02.039Z,21.60
2019-04-22T00:34:27.031Z,21.53
2019-04-22T00:37:00.963Z,23.33
2019-04-22T00:39:38.405Z,21.10
2019-04-22T00:42:01.958Z,22.60
2019-04-22T00:47:12.190Z,21.20
2019-04-22T00:50:06.672Z,24.63
2019-04-22T00:54:37.685Z,22.57
2019-04-22T00:57:01.451Z,22.73
2019-04-22T00:59:40.371Z,26.90
2019-04-22T01:02:07.650Z,23.47
2019-04-22T01:04:44.215Z,25.63
2019-04-22T01:07:09.280Z,25.20
2019-04-22T01:09:41.193Z,25.53
2019-04-22T01:12:07.568Z,24.60
2019-04-22T01:14:35.290Z,30.33
2019-04-22T01:17:07.259Z,25.97
2019-04-22T01:19:45.189Z,24.63
2019-04-22T01:22:13.151Z,27.30
2019-04-22T01:24:38.729Z,26.70
2019-04-22T01:27:08.125Z,29.33
2019-04-22T01:29:37.570Z,28.07
2019-04-22T01:31:53.108Z,28.70
2019-04-22T01:34:36.174Z,27.50
2019-04-22T01:37:08.049Z,30.03
2019-04-22T01:39:50.096Z,30.67
2019-04-22T01:42:15.761Z,30.13
2019-04-22T01:44:45.484Z,29.07
2019-04-22T01:47:26.666Z,28.90
2019-04-22T01:49:49.526Z,30.57
2019-04-22T01:55:04.306Z,30.17
2019-04-22T01:57:17.206Z,30.67
2019-04-22T01:59:41.598Z,32.43
2019-04-22T02:02:22.184Z,31.57
2019-04-22T02:04:53.316Z,34.07
2019-04-22T02:07:28.055Z,32.03
2019-04-22T02:12:29.931Z,32.67
2019-04-22T02:14:52.233Z,32.00
2019-04-22T02:17:26.931Z,34.87
2019-04-22T02:19:59.090Z,32.40
2019-04-22T02:22:46.409Z,33.67
2019-04-22T02:25:18.546Z,33.77
2019-04-22T02:27:35.189Z,34.73
2019-04-22T02:29:51.804Z,34.67
2019-04-22T02:33:08.181Z,34.97
2019-04-22T02:37:46.102Z,38.90
2019-04-22T02:42:55.864Z,34.00
2019-04-22T02:44:58.536Z,34.33
2019-04-22T02:47:51.993Z,34.70
2019-04-22T02:52:39.473Z,34.53
2019-04-22T02:57:47.098Z,34.70
2019-04-22T03:00:18.139Z,34.47
2019-04-22T03:05:12.963Z,34.07
2019-04-22T03:07:41.047Z,34.93
2019-04-22T03:10:09.953Z,37.57
2019-04-22T03:12:33.257Z,34.90
2019-04-22T03:15:07.490Z,39.50
2019-04-22T03:17:39.053Z,37.07
2019-04-22T03:22:34.443Z,35.77
2019-04-22T03:25:42.809Z,35.80
2019-04-22T03:27:40.237Z,35.17
2019-04-22T03:30:47.617Z,38.00
2019-04-22T03:40:26.001Z,37.17
2019-04-22T03:45:26.665Z,37.80
2019-04-22T03:50:20.632Z,39.97
2019-04-22T03:52:47.071Z,38.13
2019-04-22T03:55:15.616Z,37.57
2019-04-22T04:02:46.985Z,36.77
2019-04-22T04:06:37.018Z,39.00
2019-04-22T04:15:18.644Z,38.57
2019-04-22T04:28:24.502Z,40.73
2019-04-22T04:32:58.931Z,41.57
2019-04-22T04:35:39.151Z,40.43
2019-04-22T04:37:52.403Z,40.93
2019-04-22T04:43:05.672Z,41.33
2019-04-22T04:45:31.990Z,42.00
2019-04-22T04:55:23.972Z,42.03
2019-04-22T04:58:13.796Z,41.40
2019-04-22T05:02:55.902Z,41.77
2019-04-22T05:05:29.581Z,41.43
2019-04-22T05:18:16.619Z,39.83
2019-04-22T05:22:44.819Z,38.27
2019-04-22T05:25:17.925Z,39.73
2019-04-22T05:27:50.962Z,39.17
2019-04-22T05:32:52.755Z,38.13
2019-04-22T05:35:23.036Z,38.93
2019-04-22T05:37:51.904Z,36.03
2019-04-22T05:42:54.589Z,36.53
2019-04-22T05:47:55.047Z,35.00
2019-04-22T05:50:21.890Z,34.47
2019-04-22T05:52:55.372Z,33.27
2019-04-22T05:55:33.166Z,34.37
2019-04-22T05:57:57.649Z,33.20
2019-04-22T06:00:30.953Z,32.80
2019-04-22T06:02:56.801Z,33.37
2019-04-22T06:05:32.692Z,33.13
2019-04-22T06:08:01.499Z,32.73
2019-04-22T06:10:33.451Z,33.43
2019-04-22T06:12:59.224Z,31.73
2019-04-22T06:15:36.188Z,32.23
2019-04-22T06:18:16.233Z,33.27
2019-04-22T06:20:37.305Z,32.63
2019-04-22T06:23:12.440Z,33.40
2019-04-22T06:26:05.246Z,33.37
2019-04-22T06:28:16.031Z,31.23
2019-04-22T06:30:41.738Z,31.50
2019-04-22T06:35:45.696Z,30.73
2019-04-22T06:40:46.762Z,31.50
2019-04-22T06:45:39.944Z,29.77
2019-04-22T06:50:52.850Z,31.07
2019-04-22T06:53:29.803Z,28.30
2019-04-22T06:55:45.637Z,28.73
2019-04-22T06:58:15.113Z,28.60
2019-04-22T07:05:46.395Z,27.30
2019-04-22T07:08:45.706Z,27.60
2019-04-22T07:10:47.760Z,26.37
2019-04-22T07:13:23.254Z,25.37
2019-04-22T07:20:54.675Z,25.43
2019-04-22T07:23:24.819Z,24.30
2019-04-22T07:25:45.205Z,25.90
2019-04-22T07:28:15.784Z,22.77
2019-04-22T07:30:44.835Z,22.70
2019-04-22T07:33:22.904Z,22.97
2019-04-22T07:38:23.725Z,21.40
2019-04-22T07:40:50.120Z,23.20
2019-04-22T07:43:32.472Z,20.80
2019-04-22T07:45:49.155Z,21.17
2019-04-22T07:50:56.043Z,20.23
2019-04-22T07:53:24.619Z,19.30
2019-04-22T07:55:53.272Z,19.23
2019-04-22T07:58:27.406Z,19.67
2019-04-22T08:00:59.108Z,17.50
2019-04-22T08:03:28.931Z,17.93
2019-04-22T08:08:27.171Z,19.43
2019-04-22T08:10:56.741Z,16.60
2019-04-22T08:13:25.281Z,16.43
2019-04-22T08:15:58.442Z,15.43
2019-04-22T08:18:28.918Z,15.93
2019-04-22T08:20:54.098Z,16.90
2019-04-22T08:25:55.806Z,16.27
2019-04-22T08:28:32.019Z,17.37
2019-04-22T08:31:01.919Z,16.90
2019-04-22T08:33:30.653Z,16.20
2019-04-22T08:38:46.932Z,18.23
2019-04-22T08:41:28.345Z,19.07
2019-04-22T08:46:27.450Z,16.73
2019-04-22T08:48:49.564Z,15.60
2019-04-22T08:51:21.086Z,16.20
2019-04-22T08:53:56.260Z,15.00
2019-04-22T08:56:29.476Z,14.17
2019-04-22T08:58:57.275Z,15.03
2019-04-22T09:01:23.766Z,15.13
2019-04-22T09:03:52.686Z,15.60
2019-04-22T09:06:34.127Z,15.73
2019-04-22T09:08:55.214Z,18.03
2019-04-22T09:11:31.269Z,15.57
2019-04-22T09:16:28.267Z,19.20
2019-04-22T09:18:55.979Z,17.97
2019-04-22T09:21:27.648Z,15.10
2019-04-22T09:24:00.773Z,14.43
2019-04-22T09:26:25.460Z,16.33
2019-04-22T09:28:59.835Z,20.67
2019-04-22T09:33:47.656Z,14.73
2019-04-22T09:36:29.537Z,17.73
2019-04-22T09:38:52.681Z,14.70
2019-04-22T09:41:27.209Z,14.13
2019-04-22T09:44:01.161Z,15.77
2019-04-22T09:46:32.719Z,15.40
2019-04-22T09:48:59.021Z,14.37
2019-04-22T09:51:26.852Z,13.83
2019-04-22T09:54:00.705Z,14.37
2019-04-22T09:58:57.021Z,15.57
2019-04-22T10:11:36.120Z,10.43
2019-04-22T10:14:01.636Z,9.30
2019-04-22T10:16:37.165Z,8.23
2019-04-22T10:24:03.524Z,10.10
2019-04-22T10:26:34.572Z,10.27
2019-04-22T10:29:06.925Z,6.80
2019-04-22T10:33:53.286Z,8.13
2019-04-22T10:36:07.864Z,6.77
2019-04-22T10:38:36.801Z,5.43
2019-04-22T10:41:05.439Z,5.37
2019-04-22T10:43:34.933Z,8.27
2019-04-22T10:46:04.107Z,6.93
2019-04-22T10:48:32.740Z,7.23
2019-04-22T10:51:01.240Z,7.43
2019-04-22T10:53:31.148Z,6.43
2019-04-22T10:56:00.973Z,6.67
2019-04-22T10:58:30.798Z,9.83
2019-04-22T11:01:00.168Z,9.73
2019-04-22T11:03:28.886Z,9.60
2019-04-22T11:05:59.081Z,10.70
2019-04-22T11:08:33.903Z,9.17
2019-04-22T11:11:12.426Z,6.87
2019-04-22T11:13:28.435Z,10.77
2019-04-22T11:15:58.286Z,8.30
2019-04-22T11:18:27.422Z,9.03
2019-04-22T11:20:56.164Z,7.17
2019-04-22T11:23:24.800Z,11.97
2019-04-22T11:25:54.069Z,8.37
2019-04-22T11:28:23.366Z,9.20
2019-04-22T11:30:52.343Z,8.20
2019-04-22T11:33:20.973Z,8.03
2019-04-22T11:35:50.119Z,9.50
2019-04-22T11:38:19.133Z,14.10
2019-04-22T11:40:52.316Z,12.03
2019-04-22T11:43:17.922Z,8.03
2019-04-22T11:45:47.103Z,10.00
2019-04-22T11:48:15.706Z,9.50
2019-04-22T11:50:46.159Z,8.17
2019-04-22T11:53:14.836Z,8.40
2019-04-22T11:55:44.610Z,18.17
2019-04-22T11:58:14.775Z,11.07
2019-04-22T12:00:45.127Z,7.83
2019-04-22T12:03:14.754Z,10.70
2019-04-22T12:05:43.920Z,9.53
2019-04-22T12:08:13.207Z,11.27
2019-04-22T12:10:49.435Z,10.57
2019-04-22T12:13:12.358Z,8.13
2019-04-22T12:15:40.914Z,7.67
2019-04-22T12:18:11.183Z,7.40
2019-04-22T12:20:41.408Z,9.80
2019-04-22T12:23:11.371Z,18.33
2019-04-22T12:25:48.629Z,11.23
2019-04-22T12:28:12.905Z,7.87
2019-04-22T12:30:41.805Z,6.93
2019-04-22T12:33:11.629Z,13.20
2019-04-22T12:35:40.511Z,7.37
2019-04-22T12:38:11.153Z,11.60
2019-04-22T12:40:48.669Z,7.23
2019-04-22T12:43:11.938Z,8.50
2019-04-22T12:45:40.334Z,13.07
2019-04-22T12:48:10.099Z,10.40
2019-04-22T12:50:43.511Z,9.53
2019-04-22T12:53:13.855Z,10.50
2019-04-22T12:55:39.741Z,16.20
2019-04-22T12:58:09.625Z,11.83
2019-04-22T13:00:38.556Z,12.13
2019-04-22T13:03:07.359Z,11.47
2019-04-22T13:05:37.462Z,7.77
2019-04-22T13:08:07.572Z,11.13
2019-04-22T13:10:45.697Z,7.13
2019-04-22T13:13:07.139Z,9.83
2019-04-22T13:15:37.032Z,11.87
2019-04-22T13:18:16.979Z,8.10
2019-04-22T13:20:36.531Z,12.30
2019-04-22T13:23:05.208Z,6.70
2019-04-22T13:25:34.705Z,6.73
2019-04-22T13:28:04.897Z,10.47
2019-04-22T13:30:34.701Z,8.30
2019-04-22T13:33:03.311Z,9.10
2019-04-22T13:35:31.942Z,7.27
2019-04-22T13:38:01.254Z,6.10
2019-04-22T13:40:30.813Z,5.87
2019-04-22T13:43:00.780Z,6.00
2019-04-22T13:45:29.801Z,8.30
2019-04-22T13:48:16.710Z,5.10
2019-04-22T13:50:56.317Z,5.70
2019-04-22T13:58:15.698Z,5.70
2019-04-22T14:00:34.416Z,5.57
2019-04-22T14:03:10.700Z,6.47
2019-04-22T14:05:42.523Z,8.13
2019-04-22T14:08:12.688Z,7.37
2019-04-22T14:10:42.620Z,5.57
2019-04-22T14:13:12.110Z,7.87
2019-04-22T14:15:43.575Z,10.53
2019-04-22T14:18:11.036Z,6.43
2019-04-22T14:20:40.872Z,7.73
2019-04-22T14:23:10.263Z,4.93
2019-04-22T14:25:41.042Z,6.33
2019-04-22T14:28:15.059Z,5.60
2019-04-22T14:30:39.976Z,5.63
2019-04-22T14:33:09.759Z,5.23
2019-04-22T14:35:39.782Z,6.57
2019-04-22T14:38:08.805Z,7.03
2019-04-22T14:40:40.931Z,8.33
2019-04-22T14:43:28.999Z,10.83
2019-04-22T14:46:06.999Z,7.33
2019-04-22T14:48:35.943Z,8.50
2019-04-22T14:50:56.021Z,5.93
2019-04-22T14:53:30.879Z,8.43
2019-04-22T14:55:40.494Z,5.63
2019-04-22T14:58:09.256Z,8.57
2019-04-22T15:00:38.208Z,11.30
2019-04-22T15:03:08.185Z,10.47
2019-04-22T15:05:37.547Z,6.50
2019-04-22T15:08:07.087Z,10.43
2019-04-22T15:10:36.210Z,8.13
2019-04-22T15:13:05.420Z,6.27
2019-04-22T15:15:43.197Z,10.90
2019-04-22T15:18:26.056Z,7.70
2019-04-22T15:21:00.652Z,8.40
2019-04-22T15:23:30.879Z,6.33
2019-04-22T15:25:59.544Z,7.07
2019-04-22T15:28:29.252Z,8.80
2019-04-22T15:30:59.355Z,8.97
2019-04-22T15:33:29.522Z,8.77
2019-04-22T15:35:59.041Z,7.63
2019-04-22T15:38:28.243Z,6.90
2019-04-22T15:40:56.855Z,8.43
2019-04-22T15:43:27.986Z,6.47
2019-04-22T15:45:57.139Z,10.93
2019-04-22T15:48:27.112Z,7.03
2019-04-22T15:50:55.791Z,10.50
2019-04-22T15:53:25.415Z,10.20
2019-04-22T15:55:54.669Z,7.00
2019-04-22T15:58:23.869Z,9.70
2019-04-22T16:01:03.949Z,7.53
2019-04-22T16:03:22.913Z,10.70
2019-04-22T16:05:52.251Z,12.40
2019-04-22T16:08:21.355Z,10.10
2019-04-22T16:10:51.549Z,8.40
2019-04-22T16:13:24.438Z,7.27
2019-04-22T16:15:50.578Z,8.30
2019-04-22T16:18:20.139Z,8.90
2019-04-22T16:20:50.181Z,8.17
2019-04-22T16:23:28.199Z,7.60
2019-04-22T16:25:59.092Z,16.63
2019-04-22T16:28:29.166Z,8.00
2019-04-22T16:30:59.466Z,12.20
2019-04-22T16:33:28.530Z,6.87
2019-04-22T16:35:58.551Z,8.73
2019-04-22T16:38:27.231Z,14.73
2019-04-22T16:40:56.818Z,9.97
2019-04-22T16:43:26.575Z,12.87
2019-04-22T16:45:55.853Z,10.93
2019-04-22T16:48:25.558Z,9.23
2019-04-22T16:50:55.007Z,7.30
2019-04-22T16:53:25.290Z,9.17
2019-04-22T16:55:54.887Z,10.77
2019-04-22T16:58:25.035Z,8.63
2019-04-22T17:00:54.673Z,8.77
2019-04-22T17:03:34.588Z,9.07
2019-04-22T17:06:17.383Z,5.40
2019-04-22T17:08:46.702Z,7.23
2019-04-22T17:11:16.017Z,5.83
2019-04-22T17:13:46.184Z,8.10
2019-04-22T17:16:16.028Z,4.97
2019-04-22T17:18:45.525Z,8.33
2019-04-22T17:21:15.006Z,5.40
2019-04-22T17:23:43.596Z,9.87
2019-04-22T17:26:12.714Z,14.63
2019-04-22T17:28:41.713Z,5.00
2019-04-22T17:31:10.859Z,4.80
2019-04-22T17:33:39.525Z,4.50
2019-04-22T17:36:10.175Z,7.73
2019-04-22T17:38:48.676Z,7.13
2019-04-22T17:41:23.138Z,4.73
2019-04-22T17:44:21.854Z,5.67
2019-04-22T17:46:40.444Z,5.90
2019-04-22T17:49:26.273Z,5.63
2019-04-22T17:52:10.737Z,5.57
2019-04-22T17:54:42.089Z,8.57
2019-04-22T17:57:09.749Z,5.23
2019-04-22T17:59:42.068Z,9.10
2019-04-22T18:02:12.922Z,7.30
2019-04-22T18:04:23.352Z,5.43
2019-04-22T18:07:18.607Z,5.20
2019-04-22T18:10:10.982Z,8.10
2019-04-22T18:12:20.414Z,4.77
2019-04-22T18:14:49.710Z,5.07
2019-04-22T18:17:17.364Z,5.70
2019-04-22T18:19:39.940Z,3.97
2019-04-22T18:22:07.632Z,5.43
2019-04-22T18:24:32.462Z,8.37
2019-04-22T18:27:31.162Z,4.57
2019-04-22T18:29:43.399Z,6.13
2019-04-22T18:32:07.403Z,4.97
2019-04-22T18:34:39.028Z,5.00
2019-04-22T18:37:13.004Z,10.53
2019-04-22T18:39:46.363Z,6.27
2019-04-22T18:42:10.734Z,5.50
2019-04-22T18:44:49.393Z,4.47
2019-04-22T18:47:14.624Z,8.27
2019-04-22T18:49:41.800Z,4.47
2019-04-22T18:52:19.633Z,4.00
2019-04-22T18:54:55.244Z,5.70
2019-04-22T18:57:23.270Z,6.37
2019-04-22T18:59:37.954Z,6.63
2019-04-22T19:02:08.999Z,3.30
2019-04-22T19:04:44.377Z,3.77
2019-04-22T19:07:28.644Z,6.07
2019-04-22T19:10:04.885Z,5.70
2019-04-22T19:12:33.758Z,9.23
2019-04-22T19:15:03.776Z,4.50
2019-04-22T19:20:03.126Z,7.33
2019-04-22T19:22:29.836Z,4.07
2019-04-22T19:24:54.956Z,5.77
2019-04-22T19:27:26.612Z,5.83
2019-04-22T19:30:04.323Z,8.10
2019-04-22T19:32:34.016Z,4.57
2019-04-22T19:34:59.965Z,5.47
2019-04-22T19:37:28.417Z,5.63
2019-04-22T19:40:09.590Z,4.97
2019-04-22T19:42:38.683Z,4.33
2019-04-22T19:45:04.518Z,3.20
2019-04-22T19:47:50.097Z,3.80
2019-04-22T19:50:12.868Z,4.63
2019-04-22T19:52:35.542Z,6.10
2019-04-22T19:55:07.913Z,4.03
2019-04-22T19:57:32.575Z,6.23
2019-04-22T20:00:18.469Z,7.73
2019-04-22T20:02:51.175Z,8.10
2019-04-22T20:05:37.201Z,13.90
2019-04-22T20:08:07.318Z,5.37
2019-04-22T20:10:33.101Z,5.43
2019-04-22T20:13:07.629Z,4.87
2019-04-22T20:15:30.238Z,7.37
2019-04-22T20:20:42.230Z,8.30
2019-04-22T20:23:01.820Z,4.77
2019-04-22T20:25:38.961Z,5.20
2019-04-22T20:28:13.236Z,4.97
2019-04-22T20:30:39.673Z,7.53
2019-04-22T20:33:01.913Z,5.50
2019-04-22T20:35:43.685Z,6.63
2019-04-22T20:38:08.807Z,3.97
2019-04-22T20:40:39.987Z,6.77
2019-04-22T20:43:17.626Z,5.33
2019-04-22T20:45:45.905Z,4.20
2019-04-22T20:48:03.670Z,4.70
2019-04-22T20:50:48.176Z,7.20
2019-04-22T20:53:18.733Z,7.90
2019-04-22T20:55:43.569Z,4.37
2019-04-22T20:58:18.029Z,5.83
2019-04-22T21:00:40.279Z,7.70
2019-04-22T21:03:05.394Z,8.23
2019-04-22T21:05:38.184Z,5.47
2019-04-22T21:08:18.997Z,6.90
2019-04-22T21:10:44.813Z,10.53
2019-04-22T21:13:12.806Z,6.20
2019-04-22T21:15:49.353Z,5.07
2019-04-22T21:18:19.110Z,5.47
2019-04-22T21:20:59.203Z,5.03
2019-04-22T21:23:19.855Z,7.43
2019-04-22T21:25:54.341Z,4.00
2019-04-22T21:28:21.658Z,3.80
2019-04-22T21:30:53.512Z,6.40
2019-04-22T21:33:18.426Z,5.23
2019-04-22T21:36:12.162Z,3.63
2019-04-22T21:38:31.079Z,5.77
2019-04-22T21:40:56.390Z,5.13
2019-04-22T21:43:30.132Z,5.13
2019-04-22T21:45:57.269Z,4.57
2019-04-22T21:48:31.146Z,4.23
2019-04-22T21:50:59.867Z,5.20
2019-04-22T21:53:35.058Z,3.23
2019-04-22T21:56:11.827Z,6.43
2019-04-22T21:58:38.538Z,6.87
2019-04-22T22:01:16.907Z,5.87
2019-04-22T22:03:38.837Z,4.87
2019-04-22T22:06:00.171Z,5.50
2019-04-22T22:08:42.402Z,5.40
2019-04-22T22:11:11.303Z,4.10
2019-04-22T22:13:44.480Z,3.93
2019-04-22T22:16:06.609Z,5.00
2019-04-22T22:18:29.040Z,3.33
2019-04-22T22:21:25.284Z,5.67
2019-04-22T22:23:59.574Z,3.60
2019-04-22T22:26:06.907Z,2.93
2019-04-22T22:29:02.090Z,4.17
2019-04-22T22:31:14.811Z,6.40
2019-04-22T22:33:41.775Z,4.07
2019-04-22T22:36:05.139Z,8.03
2019-04-22T22:38:35.007Z,5.30
2019-04-22T22:40:51.918Z,2.50
2019-04-22T22:43:30.096Z,7.63
2019-04-22T22:46:03.307Z,7.13
2019-04-22T22:48:44.701Z,4.80
2019-04-22T22:51:15.236Z,5.50
2019-04-22T22:53:44.689Z,5.30
2019-04-22T22:56:13.919Z,2.73
2019-04-22T22:58:41.023Z,3.50
2019-04-22T23:01:09.654Z,3.47
2019-04-22T23:04:00.638Z,6.00
2019-04-22T23:06:21.332Z,4.73
2019-04-22T23:08:46.086Z,5.33
2019-04-22T23:11:15.256Z,7.27
2019-04-22T23:13:42.425Z,5.30
2019-04-22T23:16:04.166Z,5.37
2019-04-22T23:18:23.800Z,3.63
2019-04-22T23:20:54.088Z,3.40
2019-04-22T23:23:50.067Z,3.80
2019-04-22T23:26:09.204Z,4.30
2019-04-22T23:28:40.024Z,2.87
2019-04-22T23:31:09.537Z,3.40
2019-04-22T23:33:49.444Z,5.20
2019-04-22T23:36:22.849Z,3.97
2019-04-22T23:39:00.054Z,4.67
2019-04-22T23:41:45.775Z,4.30
2019-04-22T23:44:13.489Z,3.23
2019-04-22T23:46:52.152Z,2.70
2019-04-22T23:49:22.248Z,5.90
2019-04-22T23:52:02.634Z,3.00
2019-04-22T23:54:35.883Z,4.00
2019-04-22T23:56:52.229Z,3.23
2019-04-22T23:59:38.285Z,5.03
